Terminal Aerodrome Forecast
Issued by NWS

Home | Current Version | Previous Version | Text Only | Print | Product List | Glossary On
Versions: 1 2 3 4 5 6 7 8 9 10 11 12 13 14
000
FTAK31 PAJN 211100 RRA
TAFAJN
TAF
PAJN 211143Z 2112/2212 00000KT P6SM FEW160
     FM211400 VRB03KT P6SM VCFG FEW002
     FM211700 25005KT P6SM SKC
     FM212000 25009KT P6SM SKC
     FM220300 VRB04KT P6SM SKC
     FM220600 00000KT P6SM SKC=

USA.gov is the U.S. government's official web portal to all federal, state and local government web resources and services.